Nearby METAR Reports

 

KMNN - Marion, Ohio, USA
Distance from station: ENE 4mi, 6km
Updated: 04/19/2024 9:53am
Mist, Overcast
Mist, Overcast
 Wind from NW
Wind: NW 14 mph, 22 km/h, Gust: 25 mph, 41 km/h
Temperature: 52°F, 11°C
Dew Point: 50°F, 10°C
Humidity: 94%
Barometer: 29.99 inHg, 1015.6 hPa
Summary: Mist
Clouds: Overcast
Visibility: 6 miles, 10 km
Cloud details: Mostly cloudy 600 ft
Overcast 1100 ft
2024/04/19 13:53 KMNN 191353Z AUTO 32012G22KT 6SM BR BKN006 OVC011 11/10 A2999 RMK AO2 RAB14E23 SLP155 P0000 T01110100
KDLZ - Delaware, Ohio, USA
Distance from station: S 21mi, 34km
Updated: 04/19/2024 10:15am
Mist, Overcast
Mist, Overcast
 Wind from NW
Wind: NW 17 mph, 28 km/h, Gust: 29 mph, 46 km/h
Temperature: 50°F, 10°C
Wind Chill: 44°F, 7°C
Dew Point: 46°F, 8°C
Humidity: 88%
Barometer: 30.01 inHg, 1016.3 hPa
Summary: Mist
Clouds: Overcast
Visibility: 4 miles, 6 km
Cloud details: Mostly cloudy 700 ft
Overcast 1200 ft
2024/04/19 14:15 KDLZ 191415Z AUTO 31015G25KT 4SM BR BKN007 OVC012 10/08 A3001 RMK AO2
 
KMRT - Marysville, Ohio, USA
Distance from station: SSW 28mi, 45km
Updated: 04/19/2024 10:15am
Mostly cloudy
Mostly cloudy
 Wind from NNW
Wind: NNW 12 mph, 19 km/h, Gust: 17 mph, 28 km/h
Temperature: 52°F, 11°C
Dew Point: 46°F, 8°C
Humidity: 82%
Barometer: 30.02 inHg, 1016.6 hPa
Clouds: Mostly cloudy
Visibility: 5 miles, 8 km
Cloud details: Mostly cloudy 800 ft
Mostly cloudy 1200 ft
2024/04/19 14:15 KMRT 191415Z AUTO 33010G15KT 5SM BKN008 BKN012 11/08 A3002 RMK AO2 T01060080
KOSU - Columbus/St Univ, Ohio, USA
Distance from station: S 35mi, 56km
Updated: 04/19/2024 9:53am
Haze, Overcast
Haze, Overcast
 Wind from WNW
Wind: WNW 16 mph, 26 km/h, Gust: 23 mph, 37 km/h
Temperature: 57°F, 14°C
Dew Point: 54°F, 12°C
Humidity: 88%
Barometer: 29.99 inHg, 1015.6 hPa
Summary: Haze
Clouds: Overcast
Visibility: 5 miles, 8 km
Cloud details: Overcast 1100 ft
2024/04/19 13:53 KOSU 191353Z 29014G20KT 5SM HZ OVC011 14/12 A2999 RMK AO2 SLP152 T01440117
 
KMFD - Mansfield, Ohio, USA
Distance from station: ENE 36mi, 57km
Updated: 04/19/2024 10:06am
Mist, Overcast
Mist, Overcast
 Wind from W
Wind: W 10 mph, 17 km/h, Gust: 20 mph, 31 km/h
Temperature: 54°F, 12°C
Dew Point: 52°F, 11°C
Humidity: 94%
Barometer: 29.95 inHg, 1014.2 hPa
Summary: Mist
Clouds: Overcast
Visibility: 2 1/2 miles, 4 km
Cloud details: Overcast 500 ft
2024/04/19 14:06 KMFD 191406Z 27009G17KT 2 1/2SM BR OVC005 12/11 A2995 RMK AO2 CIG 004V009 T01220111
K4I3 - Mt Vernon/Knox, Ohio, USA
Distance from station: ESE 36mi, 58km
Updated: 04/19/2024 10:15am
Mostly cloudy
Mostly cloudy
 Wind from W
Wind: W 16 mph, 26 km/h, Gust: 25 mph, 41 km/h
Temperature: 57°F, 14°C
Dew Point: 54°F, 12°C
Humidity: 88%
Barometer: 29.98 inHg, 1015.2 hPa
Clouds: Mostly cloudy
Visibility: 7 miles, 11 km
Cloud details: Partly cloudy 1200 ft
Mostly cloudy 1600 ft
Mostly cloudy 2100 ft
2024/04/19 14:15 K4I3 191415Z AUTO 28014G22KT 7SM SCT012 BKN016 BKN021 14/12 A2998 RMK AO2
 
KEDJ - Bellefontaine, Ohio, USA
Distance from station: WSW 39mi, 63km
Updated: 04/19/2024 10:15am
Mist, Overcast
Mist, Overcast
 Wind from NW
Wind: NW 12 mph, 19 km/h
Temperature: 50°F, 10°C
Wind Chill: 45°F, 7°C
Dew Point: 50°F, 10°C
Humidity: 100%
Barometer: 30.03 inHg, 1016.9 hPa
Summary: Mist
Clouds: Overcast
Visibility: 4 miles, 6 km
Cloud details: Mostly cloudy 800 ft
Overcast 1300 ft
2024/04/19 14:15 KEDJ 191415Z AUTO 32010KT 4SM BR BKN008 OVC013 10/10 A3003 RMK A01
KFDY - Findlay, Ohio, USA
Distance from station: NW 41mi, 66km
Updated: 04/19/2024 9:53am
Overcast
Overcast
 Wind from WNW
Wind: WNW 13 mph, 20 km/h
Temperature: 52°F, 11°C
Dew Point: 46°F, 8°C
Humidity: 82%
Barometer: 29.99 inHg, 1015.6 hPa
Clouds: Overcast
Visibility: 10 miles, 16 km
Cloud details: Mostly cloudy 1200 ft
Overcast 1700 ft
2024/04/19 13:53 KFDY 191353Z AUTO 30011KT 10SM BKN012 OVC017 11/08 A2999 RMK AO2 PK WND 31026/1257 SLP150 T01110078
 
KCMH - Columbus, Ohio, USA
Distance from station: SSE 43mi, 69km
Updated: 04/19/2024 10:23am
Overcast
Overcast
 Wind from W
Wind: W 17 mph, 28 km/h
Temperature: 57°F, 14°C
Dew Point: 54°F, 12°C
Humidity: 88%
Barometer: 29.99 inHg, 1015.6 hPa
Clouds: Overcast
Visibility: 9 miles, 14 km
Cloud details: Overcast 1400 ft
2024/04/19 14:23 KCMH 191423Z 28015KT 9SM OVC014 14/12 A2999 RMK AO2 T01390117
KAOH - Lima, Ohio, USA
Distance from station: W 47mi, 76km
Updated: 04/19/2024 9:53am
Overcast
Overcast
 Wind from NW
Wind: NW 14 mph, 22 km/h, Gust: 23 mph, 37 km/h
Temperature: 52°F, 11°C
Dew Point: 46°F, 8°C
Humidity: 82%
Barometer: 30.01 inHg, 1016.3 hPa
Clouds: Overcast
Visibility: 10 miles, 16 km
Cloud details: Overcast 1300 ft
2024/04/19 13:53 KAOH 191353Z AUTO 31012G20KT 10SM OVC013 11/08 A3001 RMK AO2 SLP162 T01060083
 
KTZR - Columbus/Bolton, Ohio, USA
Distance from station: S 48mi, 77km
Updated: 04/19/2024 9:55am
Mist, Overcast
Mist, Overcast
 Wind from WNW
Wind: WNW 10 mph, 17 km/h, Gust: 20 mph, 31 km/h
Temperature: 55°F, 13°C
Dew Point: 54°F, 12°C
Humidity: 94%
Barometer: 30.00 inHg, 1015.9 hPa
Summary: Mist
Clouds: Overcast
Visibility: 4 miles, 6 km
Cloud details: Mostly cloudy 900 ft
Overcast 1400 ft
2024/04/19 13:55 KTZR 191355Z 30009G17KT 4SM BR BKN009 OVC014 13/12 A3000
KUYF - London, Ohio, USA
Distance from station: SSW 49mi, 78km
Updated: 04/19/2024 10:35am
Overcast
Overcast
 Wind from NNW
Wind: NNW 16 mph, 26 km/h, Gust: 23 mph, 37 km/h
Temperature: 52°F, 11°C
Dew Point: 48°F, 9°C
Humidity: 88%
Barometer: 30.03 inHg, 1016.9 hPa
Clouds: Overcast
Visibility: 10 miles, 16 km
Cloud details: Overcast 800 ft
2024/04/19 14:35 KUYF 191435Z AUTO 34014G20KT 10SM OVC008 11/09 A3003 RMK AO2